Time;durP1;ratioP1;P1;durP2;ratioP2;P2;SDS_P1;SDS_P2;PMS_P1;PMS_P2;Temp;Humidity;BMP_temperature;BMP_pressure;BME280_temperature;BME280_humidity;BME280_pressure;Samples;Min_cycle;Max_cycle;Signal;HPM_P1;HPM_P2
2022/08/07 00:01:07;;;;;;;5.43;5.03;;;22.50;75.50;23.10;97099.00;;;;5096859;28;20290;-83
2022/08/07 00:03:36;;;;;;;5.23;4.73;;;22.50;75.50;23.10;97100.00;;;;5075617;28;20226;-83
2022/08/07 00:06:05;;;;;;;5.10;4.70;;;22.50;75.50;23.10;97098.00;;;;5074288;28;20192;-83
2022/08/07 00:08:32;;;;;;;4.60;4.20;;;22.50;75.50;23.10;97100.00;;;;5095097;28;20280;-84
2022/08/07 00:10:59;;;;;;;4.60;4.30;;;22.60;75.50;23.10;97100.00;;;;5093847;28;20199;-83
2022/08/07 00:13:26;;;;;;;4.43;4.13;;;22.50;75.50;23.10;97095.00;;;;5095146;28;20286;-84
2022/08/07 00:15:55;;;;;;;5.07;4.67;;;22.60;75.60;23.10;97096.00;;;;5094757;28;20530;-83
2022/08/07 00:18:24;;;;;;;4.30;4.00;;;22.50;75.50;23.10;97100.00;;;;5113288;28;20681;-83
2022/08/07 00:20:56;;;;;;;4.83;4.43;;;22.60;75.70;23.20;97094.00;;;;5110519;28;20649;-83
2022/08/07 00:23:24;;;;;;;4.43;4.03;;;22.60;75.60;23.20;97102.00;;;;5098650;28;20195;-83
2022/08/07 00:25:51;;;;;;;4.10;3.80;;;22.60;75.50;23.20;97100.00;;;;5094183;28;20674;-83
2022/08/07 00:28:19;;;;;;;4.37;4.07;;;22.60;75.30;23.20;97110.00;;;;5096560;28;20771;-83
2022/08/07 00:30:46;;;;;;;4.50;3.70;;;22.60;75.30;23.20;97100.00;;;;5094835;28;20696;-83
2022/08/07 00:33:13;;;;;;;4.27;3.93;;;22.60;75.30;23.20;97096.00;;;;5114560;28;20190;-83
2022/08/07 00:35:41;;;;;;;3.80;3.50;;;22.60;75.20;23.20;97099.00;;;;5119575;28;20218;-83
2022/08/07 00:38:09;;;;;;;4.37;3.97;;;22.60;75.20;23.10;97098.00;;;;5104017;28;20223;-83
2022/08/07 00:40:38;;;;;;;3.53;3.33;;;22.60;75.20;23.20;97093.00;;;;5110326;28;20684;-83
2022/08/07 00:43:05;;;;;;;3.60;3.30;;;22.60;75.10;23.20;97099.00;;;;5102117;28;20227;-83
2022/08/07 00:45:32;;;;;;;3.83;3.53;;;22.60;75.20;23.20;97086.00;;;;5096558;28;20668;-83
2022/08/07 00:47:59;;;;;;;3.50;3.20;;;22.60;75.10;23.10;97099.00;;;;5097155;28;20712;-83
2022/08/07 00:50:27;;;;;;;3.40;3.10;;;22.60;74.90;23.10;97090.00;;;;5093816;28;20193;-84
2022/08/07 00:52:54;;;;;;;3.10;2.90;;;22.60;74.80;23.10;97094.00;;;;5095172;28;20275;-83
2022/08/07 00:55:23;;;;;;;2.63;2.43;;;22.60;74.70;23.10;97088.00;;;;5096057;28;20207;-83
2022/08/07 00:57:50;;;;;;;3.17;2.97;;;22.60;74.70;23.10;97089.00;;;;5095737;28;20703;-83
2022/08/07 01:00:19;;;;;;;3.10;2.90;;;22.60;74.70;23.10;97083.00;;;;5095282;28;20191;-83
2022/08/07 01:02:47;;;;;;;2.90;2.70;;;22.60;74.70;23.10;97085.00;;;;5095319;28;20628;-84
2022/08/07 01:05:15;;;;;;;3.23;2.70;;;22.60;74.60;23.00;97082.00;;;;5101250;28;20214;-83
2022/08/07 01:07:42;;;;;;;2.80;2.60;;;22.50;74.50;23.00;97081.00;;;;5105911;28;20199;-83
2022/08/07 01:10:10;;;;;;;2.87;2.67;;;22.50;74.60;23.00;97088.00;;;;5101729;28;20222;-83
2022/08/07 01:12:42;;;;;;;3.03;2.73;;;22.50;74.70;23.00;97088.00;;;;5102679;28;20227;-83
2022/08/07 01:15:10;;;;;;;2.93;2.73;;;22.50;74.80;23.00;97088.00;;;;5098769;28;20203;-83
2022/08/07 01:17:38;;;;;;;2.80;2.40;;;22.50;74.70;23.00;97083.00;;;;5092821;28;20663;-83
2022/08/07 01:20:10;;;;;;;4.13;2.80;;;22.50;74.70;23.00;97083.00;;;;5093395;28;20195;-83
2022/08/07 01:22:40;;;;;;;2.97;2.73;;;22.50;74.80;23.00;97078.00;;;;5096627;28;20261;-83
2022/08/07 01:25:10;;;;;;;2.70;2.50;;;22.50;74.70;23.00;97073.00;;;;5097673;28;20253;-83
2022/08/07 01:27:38;;;;;;;2.87;2.67;;;22.50;74.60;23.00;97074.00;;;;5116521;28;20187;-83
2022/08/07 01:30:08;;;;;;;2.57;2.47;;;22.50;74.60;23.00;97078.00;;;;5115508;28;20215;-83
2022/08/07 01:32:35;;;;;;;2.73;2.53;;;22.40;74.50;22.90;97081.00;;;;5104847;28;20198;-83
2022/08/07 01:35:02;;;;;;;2.40;2.30;;;22.40;75.30;22.90;97077.00;;;;5098683;28;20238;-82
2022/08/07 01:37:30;;;;;;;2.63;2.40;;;22.40;74.60;22.90;97081.00;;;;5096025;28;20195;-83
2022/08/07 01:40:01;;;;;;;2.70;2.50;;;22.40;74.60;22.90;97075.00;;;;5120446;28;20203;-82
2022/08/07 01:42:29;;;;;;;2.47;2.37;;;22.40;74.50;22.90;97080.00;;;;5113066;28;20286;-83
2022/08/07 01:44:56;;;;;;;2.63;2.43;;;22.40;74.70;22.90;97085.00;;;;5099835;28;20246;-82
2022/08/07 01:47:24;;;;;;;2.37;2.20;;;22.40;74.60;22.80;97078.00;;;;5097535;28;20226;-83
2022/08/07 01:49:51;;;;;;;2.50;2.37;;;22.30;74.60;22.80;97076.00;;;;5095883;28;20253;-83
2022/08/07 01:52:21;;;;;;;2.53;2.33;;;22.30;74.40;22.80;97074.00;;;;5099927;28;20188;-83
2022/08/07 01:54:53;;;;;;;2.40;2.30;;;22.30;74.40;22.80;97071.00;;;;5097172;28;20239;-83
2022/08/07 01:57:28;;;;;;;2.33;2.23;;;22.30;74.40;22.80;97072.00;;;;5104596;28;20229;-82
2022/08/07 02:00:01;;;;;;;1.93;1.83;;;22.30;74.50;22.80;97067.00;;;;5116953;28;20256;-82
2022/08/07 02:02:35;;;;;;;2.43;2.30;;;22.30;74.50;22.70;97067.00;;;;5103768;28;20195;-83
2022/08/07 02:05:08;;;;;;;2.17;1.93;;;22.30;74.40;22.70;97065.00;;;;5095666;28;20290;-84
2022/08/07 02:07:42;;;;;;;3.10;2.80;;;22.20;74.30;22.70;97064.00;;;;5076142;28;20223;-84
2022/08/07 02:10:12;;;;;;;2.13;1.97;;;22.20;74.40;22.70;97057.00;;;;5076688;28;20254;-84
2022/08/07 02:12:47;;;;;;;2.60;2.40;;;22.20;74.60;22.70;97050.00;;;;5084991;28;20226;-83
2022/08/07 02:15:16;;;;;;;2.03;1.87;;;22.20;74.50;22.70;97054.00;;;;5095672;28;20249;-83
2022/08/07 02:17:47;;;;;;;2.30;2.20;;;22.20;74.50;22.60;97056.00;;;;5112502;28;20198;-84
2022/08/07 02:20:16;;;;;;;2.90;2.40;;;22.10;74.30;22.60;97043.00;;;;5098776;28;20673;-84
2022/08/07 02:22:46;;;;;;;3.00;2.70;;;22.10;74.60;22.60;97046.00;;;;5094832;28;20203;-83
2022/08/07 02:25:17;;;;;;;1.97;1.87;;;22.10;74.30;22.50;97042.00;;;;5094984;28;20282;-84
2022/08/07 02:27:48;;;;;;;2.60;2.40;;;22.10;74.30;22.50;97044.00;;;;5093715;28;20198;-83
2022/08/07 02:30:16;;;;;;;2.40;2.30;;;22.10;74.30;22.50;97043.00;;;;5092561;28;20250;-84
2022/08/07 02:32:44;;;;;;;4.20;1.93;;;22.00;74.10;22.50;97038.00;;;;5093292;28;20211;-85
2022/08/07 02:35:14;;;;;;;3.10;1.97;;;22.00;74.00;22.40;97038.00;;;;5092722;28;20301;-83
2022/08/07 02:37:41;;;;;;;2.20;2.07;;;22.00;74.00;22.40;97035.00;;;;5092118;28;20198;-80
2022/08/07 02:40:10;;;;;;;3.10;2.60;;;21.90;73.90;22.30;97032.00;;;;5097430;28;20281;-83
2022/08/07 02:42:39;;;;;;;2.30;2.20;;;21.90;73.90;22.30;97033.00;;;;5096522;28;20240;-84
2022/08/07 02:45:14;;;;;;;1.83;1.73;;;21.90;73.90;22.20;97028.00;;;;5097524;28;20233;-83
2022/08/07 02:47:41;;;;;;;2.27;2.17;;;21.80;73.80;22.20;97028.00;;;;5116140;28;20258;-83
2022/08/07 02:50:10;;;;;;;2.10;1.90;;;21.80;73.80;22.20;97023.00;;;;5112961;28;20217;-84
2022/08/07 02:52:42;;;;;;;2.90;2.30;;;21.80;73.80;22.10;97014.00;;;;5097461;28;20195;-83
2022/08/07 02:55:15;;;;;;;2.47;2.13;;;21.70;73.80;22.00;97027.00;;;;5100046;28;20722;-83
2022/08/07 02:57:46;;;;;;;1.87;1.77;;;21.70;74.00;22.00;97030.00;;;;5098550;28;20221;-83
2022/08/07 03:00:16;;;;;;;2.00;1.90;;;21.60;74.00;22.00;97025.00;;;;5098321;28;20234;-84
2022/08/07 03:02:48;;;;;;;2.40;1.67;;;21.60;73.80;21.90;97020.00;;;;5105866;28;20226;-83
2022/08/07 03:05:16;;;;;;;1.70;1.60;;;21.50;73.60;21.90;97029.00;;;;5114278;28;20220;-83
2022/08/07 03:07:46;;;;;;;1.80;1.70;;;21.50;73.80;21.90;97023.00;;;;5096644;28;20192;-83
2022/08/07 03:10:15;;;;;;;2.30;2.13;;;21.50;73.90;21.80;97021.00;;;;5102222;28;20657;-84
2022/08/07 03:12:44;;;;;;;2.03;1.67;;;21.40;73.70;21.80;97023.00;;;;5104665;28;20186;-83
2022/08/07 03:15:14;;;;;;;1.83;1.73;;;21.40;73.70;21.80;97018.00;;;;5102442;28;20268;-83
2022/08/07 03:17:43;;;;;;;1.83;1.73;;;21.40;73.60;21.70;97018.00;;;;5097462;28;20244;-83
2022/08/07 03:20:12;;;;;;;2.10;2.00;;;21.30;73.50;21.70;97018.00;;;;5097517;28;20199;-83
2022/08/07 03:22:42;;;;;;;2.10;2.00;;;21.30;74.40;21.60;97022.00;;;;5108928;28;20199;-83
2022/08/07 03:25:10;;;;;;;1.90;1.80;;;21.30;73.70;21.60;97021.00;;;;5094736;28;20222;-83
2022/08/07 03:27:39;;;;;;;1.90;1.80;;;21.30;73.80;21.60;97018.00;;;;5096010;28;20207;-84
2022/08/07 03:30:08;;;;;;;2.13;1.93;;;21.20;73.80;21.50;97029.00;;;;5110748;28;20557;-83
2022/08/07 03:32:40;;;;;;;2.50;2.40;;;21.20;73.90;21.50;97030.00;;;;5076663;28;20493;-84
2022/08/07 03:35:14;;;;;;;3.07;2.50;;;21.10;74.00;21.50;97029.00;;;;5106279;28;20211;-83
2022/08/07 03:37:45;;;;;;;2.57;2.37;;;21.10;74.30;21.50;97028.00;;;;5098433;28;20230;-84
2022/08/07 03:40:13;;;;;;;2.80;2.60;;;21.10;74.50;21.40;97035.00;;;;5114542;28;20300;-84
2022/08/07 03:42:41;;;;;;;2.30;2.20;;;21.00;74.50;21.40;97034.00;;;;5120037;28;20207;-84
2022/08/07 03:45:10;;;;;;;4.30;2.40;;;21.00;74.60;21.40;97035.00;;;;5101959;28;20251;-83
2022/08/07 03:47:39;;;;;;;2.13;2.03;;;21.00;74.70;21.40;97031.00;;;;5099497;28;20695;-84
2022/08/07 03:50:07;;;;;;;2.43;2.23;;;21.00;75.00;21.40;97025.00;;;;5097985;28;20711;-83
2022/08/07 03:52:37;;;;;;;2.30;2.20;;;21.00;75.00;21.30;97030.00;;;;5100758;28;20228;-83
2022/08/07 03:55:06;;;;;;;2.50;2.40;;;20.90;75.00;21.30;97026.00;;;;5097712;28;20253;-83
2022/08/07 03:57:35;;;;;;;2.77;2.10;;;20.90;75.00;21.30;97022.00;;;;5099248;28;20680;-82
2022/08/07 04:00:04;;;;;;;2.30;2.10;;;20.90;75.00;21.30;97019.00;;;;5112937;28;20248;-83
2022/08/07 04:02:32;;;;;;;2.80;2.40;;;20.90;75.30;21.30;97017.00;;;;5097490;28;20196;-83
2022/08/07 04:05:00;;;;;;;2.53;2.43;;;20.90;75.40;21.30;97017.00;;;;5097364;28;20262;-84
2022/08/07 04:07:28;;;;;;;2.60;2.50;;;20.90;75.40;21.20;97021.00;;;;5098886;28;20620;-84
2022/08/07 04:09:55;;;;;;;2.53;2.43;;;20.80;75.30;21.20;97021.00;;;;5097717;28;20313;-84
2022/08/07 04:12:22;;;;;;;2.33;2.23;;;20.80;75.30;21.20;97018.00;;;;5105808;28;20323;-83
2022/08/07 04:14:50;;;;;;;3.30;2.47;;;20.80;75.30;21.20;97016.00;;;;5100118;28;20211;-84
2022/08/07 04:17:18;;;;;;;2.40;2.20;;;20.80;75.20;21.20;97023.00;;;;5097531;28;20248;-83
2022/08/07 04:19:45;;;;;;;2.40;2.20;;;20.80;75.10;21.10;97022.00;;;;5096447;28;20245;-83
2022/08/07 04:22:16;;;;;;;2.30;2.10;;;20.70;74.90;21.10;97020.00;;;;5096415;28;20193;-83
2022/08/07 04:24:45;;;;;;;2.00;1.90;;;20.70;74.90;21.10;97019.00;;;;5101655;28;20250;-83
2022/08/07 04:27:12;;;;;;;1.90;1.70;;;20.70;74.70;21.00;97019.00;;;;5102208;28;20189;-83
2022/08/07 04:29:40;;;;;;;1.73;1.63;;;20.70;74.50;21.00;97019.00;;;;5116859;28;20760;-83
2022/08/07 04:32:09;;;;;;;1.67;1.57;;;20.70;74.30;21.00;97024.00;;;;5102310;28;20222;-84
2022/08/07 04:34:37;;;;;;;1.80;1.70;;;20.60;73.90;21.00;97022.00;;;;5103402;28;20219;-83
2022/08/07 04:37:05;;;;;;;1.67;1.57;;;20.60;73.80;21.00;97020.00;;;;5110597;28;20197;-83
2022/08/07 04:39:34;;;;;;;1.60;1.37;;;20.60;73.80;20.90;97014.00;;;;5104849;28;20199;-83
2022/08/07 04:42:03;;;;;;;2.03;1.40;;;20.60;73.70;20.90;97019.00;;;;5100016;28;20278;-84
2022/08/07 04:44:30;;;;;;;1.60;1.50;;;20.50;73.40;20.90;97024.00;;;;5095618;28;20302;-84
2022/08/07 04:47:09;;;;;;;1.53;1.13;;;20.50;73.30;20.90;97021.00;;;;5097581;28;20230;-84
2022/08/07 04:49:46;;;;;;;1.17;1.17;;;20.50;72.70;20.80;97017.00;;;;5110414;28;20306;-84
2022/08/07 04:52:26;;;;;;;1.47;1.20;;;20.50;72.60;20.80;97018.00;;;;5112212;28;20282;-83
2022/08/07 04:55:01;;;;;;;1.10;1.10;;;20.40;72.50;20.80;97027.00;;;;5112628;28;20253;-83
2022/08/07 04:57:39;;;;;;;1.00;1.00;;;20.40;72.20;20.70;97021.00;;;;5077580;28;20208;-83
2022/08/07 05:00:12;;;;;;;1.00;1.00;;;20.40;72.40;20.70;97024.00;;;;5076649;28;20235;-83
2022/08/07 05:02:53;;;;;;;1.30;1.20;;;20.30;72.20;20.70;97020.00;;;;5077153;28;20669;-83
2022/08/07 05:05:33;;;;;;;0.70;0.70;;;20.30;72.00;20.70;97026.00;;;;5109691;22;20243;-83
2022/08/07 05:08:19;;;;;;;1.00;1.00;;;20.30;72.00;20.70;97019.00;;;;5090930;28;20199;-82
2022/08/07 05:10:59;;;;;;;1.43;0.80;;;20.30;71.70;20.60;97016.00;;;;5069795;28;20214;-83
2022/08/07 05:13:35;;;;;;;0.87;0.87;;;20.30;71.70;20.60;97017.00;;;;5084037;28;20195;-83
2022/08/07 05:16:07;;;;;;;0.80;0.80;;;20.30;71.70;20.60;97014.00;;;;5073947;28;20221;-82
2022/08/07 05:18:52;;;;;;;1.00;1.00;;;20.30;71.50;20.60;97027.00;;;;5075531;28;20224;-83
2022/08/07 05:21:27;;;;;;;2.13;0.80;;;20.30;71.40;20.60;97013.00;;;;5074996;28;20204;-82
2022/08/07 05:24:08;;;;;;;0.90;0.90;;;20.20;71.90;20.60;97012.00;;;;5076528;28;20651;-82
2022/08/07 05:26:41;;;;;;;0.60;0.60;;;20.20;70.50;20.60;97017.00;;;;5077911;28;20199;-83
2022/08/07 05:29:15;;;;;;;0.70;0.70;;;20.20;70.60;20.70;97024.00;;;;5080989;28;20211;-83
2022/08/07 05:31:48;;;;;;;0.60;0.60;;;20.20;70.80;20.70;97023.00;;;;5083224;28;20556;-83
2022/08/07 05:34:18;;;;;;;1.03;0.70;;;20.20;70.30;20.70;97021.00;;;;5086981;28;20202;-83
2022/08/07 05:36:51;;;;;;;1.13;0.80;;;20.30;70.40;20.70;97022.00;;;;5097697;28;20198;-84
2022/08/07 05:39:21;;;;;;;0.80;0.80;;;20.30;70.70;20.70;97019.00;;;;5082971;28;20272;-83
2022/08/07 05:41:51;;;;;;;0.77;0.73;;;20.30;70.50;20.80;97026.00;;;;5060505;28;20188;-83
2022/08/07 05:44:21;;;;;;;0.67;0.67;;;20.30;70.00;20.80;97031.00;;;;5077444;28;20192;-83
2022/08/07 05:46:52;;;;;;;0.67;0.67;;;20.30;69.60;20.80;97025.00;;;;5077836;28;20219;-84
2022/08/07 05:49:22;;;;;;;0.70;0.70;;;20.30;69.50;20.80;97027.00;;;;5077132;28;20250;-84
2022/08/07 05:51:49;;;;;;;0.77;0.70;;;20.30;69.40;20.80;97032.00;;;;5076870;28;20226;-84
2022/08/07 05:54:17;;;;;;;0.87;0.80;;;20.40;69.60;20.90;97035.00;;;;5086281;28;20283;-83
2022/08/07 05:56:48;;;;;;;0.83;0.83;;;20.40;69.70;20.90;97034.00;;;;5095858;28;20196;-83
2022/08/07 05:59:26;;;;;;;1.03;0.70;;;20.40;69.30;20.90;97035.00;;;;5082616;28;20211;-83
2022/08/07 06:01:56;;;;;;;0.60;0.60;;;20.40;69.30;20.90;97036.00;;;;5075900;28;20238;-83
2022/08/07 06:04:25;;;;;;;0.80;0.80;;;20.40;69.50;21.00;97035.00;;;;5085972;28;20202;-83
2022/08/07 06:06:57;;;;;;;1.17;0.70;;;20.50;69.50;21.00;97033.00;;;;5089894;28;20570;-83
2022/08/07 06:09:30;;;;;;;1.40;0.80;;;20.50;69.40;21.00;97042.00;;;;5075598;28;20676;-83
2022/08/07 06:11:58;;;;;;;0.70;0.70;;;20.50;69.40;21.10;97039.00;;;;5083097;28;20183;-83
2022/08/07 06:14:34;;;;;;;0.87;0.73;;;20.60;70.00;21.10;97041.00;;;;5087213;28;20621;-83
2022/08/07 06:17:07;;;;;;;0.70;0.70;;;20.60;68.90;21.10;97038.00;;;;5070928;28;20220;-83
2022/08/07 06:19:38;;;;;;;0.53;0.53;;;20.60;68.90;21.10;97037.00;;;;5055881;28;20225;-83
2022/08/07 06:22:07;;;;;;;0.93;0.63;;;20.60;69.00;21.20;97038.00;;;;5062354;28;20541;-84
2022/08/07 06:24:36;;;;;;;0.80;0.80;;;20.70;69.00;21.20;97042.00;;;;5076378;28;20514;-83
2022/08/07 06:27:19;;;;;;;0.50;0.50;;;20.70;69.10;21.30;97041.00;;;;5082772;28;20197;-84
2022/08/07 06:30:00;;;;;;;1.33;0.80;;;20.70;69.00;21.30;97045.00;;;;5095692;28;20235;-82
2022/08/07 06:32:34;;;;;;;0.80;0.80;;;20.80;68.70;21.40;97051.00;;;;5065511;28;20233;-85
2022/08/07 06:35:01;;;;;;;1.00;1.00;;;20.80;68.90;21.40;97040.00;;;;5074256;28;20211;-84
2022/08/07 06:37:28;;;;;;;1.23;0.77;;;20.80;68.60;21.50;97042.00;;;;5079264;28;20191;-83
2022/08/07 06:39:55;;;;;;;0.70;0.70;;;20.90;68.60;21.50;97044.00;;;;5067896;28;20237;-84
2022/08/07 06:42:35;;;;;;;0.77;0.77;;;20.90;68.50;21.50;97048.00;;;;5066558;28;20249;-83
2022/08/07 06:45:12;;;;;;;0.90;0.90;;;21.00;68.30;21.60;97044.00;;;;5073056;28;20231;-86
2022/08/07 06:47:45;;;;;;;0.80;0.80;;;21.00;68.40;21.70;97040.00;;;;5072051;28;20256;-85
2022/08/07 06:50:14;;;;;;;1.00;1.00;;;21.10;68.80;21.70;97046.00;;;;5071246;28;20334;-86
2022/08/07 06:52:48;;;;;;;0.83;0.83;;;21.10;68.60;21.80;97034.00;;;;5070253;28;20674;-86
2022/08/07 06:55:21;;;;;;;1.80;0.80;;;21.20;68.40;21.90;97051.00;;;;5072389;28;20204;-90
2022/08/07 06:57:52;;;;;;;0.80;0.80;;;21.20;68.40;21.90;97049.00;;;;5072573;28;20233;-89
2022/08/07 07:00:22;;;;;;;1.40;1.20;;;21.30;67.80;21.90;97048.00;;;;5072666;28;20217;-88
2022/08/07 07:02:53;;;;;;;0.90;0.90;;;21.30;67.80;22.00;97041.00;;;;5082018;28;20230;-88
2022/08/07 07:05:22;;;;;;;0.80;0.80;;;21.40;68.00;22.10;97042.00;;;;5092226;28;20213;-87
2022/08/07 07:07:49;;;;;;;0.70;0.70;;;21.40;67.60;22.10;97032.00;;;;5091716;28;20283;-88
2022/08/07 07:10:27;;;;;;;1.17;0.70;;;21.40;67.70;22.20;97043.00;;;;5076381;28;20233;-89
2022/08/07 07:13:11;;;;;;;1.03;0.80;;;21.50;67.80;22.30;97037.00;;;;5071951;28;20237;-89
2022/08/07 07:15:50;;;;;;;1.83;0.90;;;21.50;67.30;22.30;97035.00;;;;5071673;28;20210;-88
2022/08/07 07:18:26;;;;;;;2.17;0.87;;;21.60;67.00;22.40;97033.00;;;;5072257;28;20262;-88
2022/08/07 07:21:00;;;;;;;1.43;0.70;;;21.70;67.50;22.50;97052.00;;;;5071940;28;20208;-86
2022/08/07 07:23:29;;;;;;;0.90;0.90;;;21.70;67.20;22.60;97053.00;;;;5071454;28;20211;-86
2022/08/07 07:26:38;;;;;;;0.70;0.60;;;21.80;67.40;22.70;97051.00;;;;5071874;28;20200;-88
2022/08/07 07:29:13;;;;;;;0.73;0.73;;;21.90;67.00;22.90;97049.00;;;;5075197;28;20750;-87
2022/08/07 07:31:54;;;;;;;0.80;0.80;;;22.00;67.10;23.00;97039.00;;;;5072538;28;20349;-84
2022/08/07 07:34:28;;;;;;;0.60;0.60;;;22.20;66.80;23.10;97040.00;;;;5078682;28;20195;-86
2022/08/07 07:37:02;;;;;;;1.00;1.00;;;22.30;67.20;23.20;97043.00;;;;5085337;28;20227;-86
2022/08/07 07:39:36;;;;;;;0.90;0.90;;;22.40;66.90;23.30;97044.00;;;;5082260;28;20223;-88
2022/08/07 07:42:11;;;;;;;0.80;0.80;;;22.50;66.10;23.40;97042.00;;;;5095268;28;20561;-85
2022/08/07 07:44:44;;;;;;;1.30;0.77;;;22.50;66.50;23.50;97033.00;;;;5094581;28;20334;-85
2022/08/07 07:47:20;;;;;;;0.80;0.80;;;22.70;66.40;23.70;97040.00;;;;5094999;28;20272;-86
2022/08/07 07:49:53;;;;;;;1.03;1.00;;;22.80;66.10;23.80;97035.00;;;;5088057;28;20212;-86
2022/08/07 07:52:26;;;;;;;2.60;1.33;;;22.90;65.90;24.00;97026.00;;;;5073576;28;20216;-86
2022/08/07 07:55:00;;;;;;;0.90;0.90;;;23.00;65.80;24.10;97031.00;;;;5069509;28;20288;-86
2022/08/07 07:57:35;;;;;;;0.93;0.90;;;23.10;66.10;24.30;97030.00;;;;5070578;28;20288;-85
2022/08/07 08:00:08;;;;;;;0.90;0.90;;;23.30;65.30;24.50;97033.00;;;;5072417;28;20221;-85
2022/08/07 08:02:41;;;;;;;0.80;0.80;;;23.40;65.80;24.70;97020.00;;;;5054010;28;20205;-85
2022/08/07 08:05:16;;;;;;;2.20;0.70;;;23.60;65.10;24.90;97018.00;;;;5058440;28;20246;-85
2022/08/07 08:07:45;;;;;;;0.60;0.60;;;23.80;64.70;25.00;97029.00;;;;5074414;28;20193;-86
2022/08/07 08:10:16;;;;;;;2.53;0.90;;;23.90;63.70;25.20;97025.00;;;;5071161;28;20683;-86
2022/08/07 08:12:46;;;;;;;1.37;0.63;;;24.10;63.70;25.40;97032.00;;;;5071694;28;20260;-86
2022/08/07 08:15:14;;;;;;;0.60;0.60;;;24.20;63.40;25.60;97029.00;;;;5071365;28;20251;-85
2022/08/07 08:17:45;;;;;;;0.83;0.80;;;24.40;63.10;25.80;97031.00;;;;5072008;28;20215;-85
2022/08/07 08:20:17;;;;;;;1.07;0.70;;;24.60;62.20;26.00;97036.00;;;;5088944;28;20191;-84
2022/08/07 08:28:25;;;;;;;0.73;0.73;;;25.10;61.10;26.50;97024.00;;;;5073912;28;20683;-84
2022/08/07 08:30:58;;;;;;;1.17;0.80;;;25.30;60.70;26.70;97024.00;;;;5073145;28;20306;-85
2022/08/07 08:33:32;;;;;;;0.80;0.80;;;25.40;60.30;26.80;97030.00;;;;5074130;28;20216;-84
2022/08/07 08:36:02;;;;;;;0.80;0.80;;;25.60;59.70;27.00;97026.00;;;;5074345;28;20191;-84
2022/08/07 08:38:36;;;;;;;0.77;0.70;;;25.70;59.70;27.10;97041.00;;;;5073224;28;20249;-84
2022/08/07 08:41:14;;;;;;;0.60;0.60;;;25.80;59.20;27.30;97039.00;;;;5066484;28;20281;-85
2022/08/07 08:43:55;;;;;;;0.70;0.70;;;26.00;59.00;27.50;97041.00;;;;5071014;28;20550;-86
2022/08/07 08:46:39;;;;;;;0.80;0.80;;;26.10;58.40;27.60;97036.00;;;;5071003;28;20196;-85
2022/08/07 08:49:21;;;;;;;0.70;0.60;;;26.30;58.00;27.80;97034.00;;;;5055649;28;20243;-85
2022/08/07 08:51:58;;;;;;;1.43;0.67;;;26.40;58.00;28.00;97042.00;;;;5074860;28;20219;-85
2022/08/07 08:54:34;;;;;;;0.60;0.60;;;26.60;57.80;28.10;97039.00;;;;5062728;28;20192;-85
2022/08/07 08:57:12;;;;;;;0.87;0.80;;;26.70;57.70;28.20;97034.00;;;;5054314;28;20200;-84
2022/08/07 08:59:53;;;;;;;0.97;0.60;;;26.90;57.70;28.40;97036.00;;;;5085726;28;20273;-84
2022/08/07 09:02:41;;;;;;;0.70;0.60;;;27.00;57.20;28.60;97037.00;;;;5054206;28;20185;-84
2022/08/07 09:05:37;;;;;;;0.60;0.60;;;27.20;57.10;28.80;97036.00;;;;5073636;28;20656;-85
2022/08/07 09:08:23;;;;;;;0.60;0.60;;;27.30;56.80;29.00;97041.00;;;;5070125;28;20270;-83
2022/08/07 09:11:06;;;;;;;1.03;0.80;;;27.50;56.50;29.20;97030.00;;;;5058419;28;20207;-82
2022/08/07 09:13:46;;;;;;;0.57;0.57;;;27.60;56.00;29.40;97029.00;;;;5071749;28;20208;-84
2022/08/07 09:16:27;;;;;;;0.70;0.70;;;27.80;55.90;29.50;97038.00;;;;5074510;28;20184;-84
2022/08/07 09:19:17;;;;;;;0.70;0.70;;;27.90;55.60;29.70;97042.00;;;;5086409;28;20243;-84
2022/08/07 09:21:59;;;;;;;2.55;0.50;;;28.10;54.00;29.80;97038.00;;;;5070840;28;20192;-84
2022/08/07 09:24:54;;;;;;;1.00;0.60;;;28.20;54.70;30.00;97043.00;;;;5072588;28;20241;-84
2022/08/07 09:27:33;;;;;;;0.98;0.60;;;28.40;54.40;30.10;97033.00;;;;5057540;28;20242;-84
2022/08/07 09:30:06;;;;;;;1.67;0.70;;;28.60;54.60;30.30;97033.00;;;;5074005;28;20224;-83
2022/08/07 09:33:06;;;;;;;0.50;0.50;;;28.70;54.20;30.40;97033.00;;;;5089222;28;20196;-84
2022/08/07 09:36:09;;;;;;;0.50;0.50;;;28.90;52.80;30.60;97031.00;;;;5064206;28;20668;-84
2022/08/07 09:38:50;;;;;;;0.90;0.45;;;29.10;53.40;30.80;97038.00;;;;5070610;28;20243;-84
2022/08/07 09:41:35;;;;;;;0.80;0.80;;;29.30;52.90;31.00;97035.00;;;;5072242;28;20203;-84
2022/08/07 09:44:13;;;;;;;0.43;0.43;;;29.40;52.90;31.10;97019.00;;;;5059690;28;20192;-84
2022/08/07 09:47:02;;;;;;;0.43;0.43;;;29.50;52.40;31.20;97026.00;;;;5063149;28;20211;-84
2022/08/07 09:49:57;;;;;;;0.43;0.40;;;29.60;51.80;31.40;97015.00;;;;5072895;28;20216;-83
2022/08/07 09:52:34;;;;;;;0.40;0.40;;;29.80;51.10;31.60;97020.00;;;;5068618;28;20239;-84
2022/08/07 09:55:14;;;;;;;1.20;0.60;;;29.80;51.40;31.80;97020.00;;;;5066450;28;20196;-84
2022/08/07 09:58:29;;;;;;;0.47;0.47;;;30.00;51.50;32.10;97022.00;;;;5076300;28;20194;-84
2022/08/07 10:01:09;;;;;;;0.88;0.45;;;30.10;50.70;32.30;97018.00;;;;5066437;28;20196;-84
2022/08/07 10:04:17;;;;;;;0.90;0.50;;;30.30;51.50;32.60;97022.00;;;;5066345;28;20265;-84
2022/08/07 10:07:05;;;;;;;0.85;0.30;;;30.50;50.70;32.80;97022.00;;;;5069127;28;20249;-84
2022/08/07 10:10:16;;;;;;;0.38;0.38;;;30.70;49.90;33.00;97020.00;;;;5068789;28;20243;-84
2022/08/07 10:13:17;;;;;;;0.50;0.50;;;30.80;49.00;33.10;97016.00;;;;5069490;28;20945;-84
2022/08/07 10:16:21;;;;;;;0.50;0.50;;;31.10;47.70;33.20;97012.00;;;;5070991;28;20574;-84
2022/08/07 10:19:38;;;;;;;0.60;0.30;;;31.20;48.70;33.40;97010.00;;;;5071798;28;20215;-84
2022/08/07 10:22:32;;;;;;;0.65;0.38;;;31.40;48.70;33.50;97015.00;;;;5069169;28;20196;-84
2022/08/07 10:25:21;;;;;;;0.38;0.38;;;31.50;48.90;33.60;97012.00;;;;5077362;28;20688;-84
2022/08/07 10:28:12;;;;;;;1.30;0.40;;;31.70;47.80;33.60;97007.00;;;;5070582;28;21154;-83
2022/08/07 10:31:00;;;;;;;1.00;0.40;;;31.80;48.20;33.70;97005.00;;;;5067013;28;20196;-83
2022/08/07 10:33:59;;;;;;;0.32;0.32;;;31.90;47.70;33.70;97010.00;;;;5068101;28;20205;-84
2022/08/07 10:36:52;;;;;;;0.40;0.40;;;32.10;45.90;33.80;97011.00;;;;5071109;28;20196;-84
2022/08/07 10:39:39;;;;;;;0.40;0.40;;;32.10;46.60;33.80;97004.00;;;;5071798;28;20273;-85
2022/08/07 10:42:24;;;;;;;0.73;0.45;;;32.30;45.80;33.80;97004.00;;;;5075163;28;20194;-84
2022/08/07 10:45:03;;;;;;;0.65;0.32;;;32.30;46.00;33.80;97000.00;;;;5080004;28;20204;-84
2022/08/07 10:47:42;;;;;;;0.98;0.50;;;32.40;46.40;33.80;97008.00;;;;5069999;28;20215;-84
2022/08/07 10:50:22;;;;;;;0.50;0.50;;;32.50;46.40;33.80;97001.00;;;;5065892;28;20254;-84
2022/08/07 10:53:01;;;;;;;1.10;1.00;;;32.60;46.10;33.80;97003.00;;;;5087676;22;20253;-82
2022/08/07 10:55:42;;;;;;;1.38;0.70;;;32.60;45.50;33.70;96998.00;;;;5072452;28;20183;-82
2022/08/07 10:58:26;;;;;;;1.80;1.08;;;32.60;45.00;33.70;96996.00;;;;5064934;28;20216;-82
2022/08/07 11:01:15;;;;;;;0.60;0.60;;;32.60;44.30;33.50;96986.00;;;;5066984;28;20207;-82
2022/08/07 11:04:07;;;;;;;0.50;0.50;;;32.60;44.30;33.40;96986.00;;;;5067255;28;20196;-82
2022/08/07 11:06:49;;;;;;;0.55;0.55;;;32.50;44.50;33.30;96982.00;;;;5063614;28;20282;-82
2022/08/07 11:09:24;;;;;;;0.95;0.70;;;32.40;44.30;33.20;96978.00;;;;5070199;28;20645;-82
2022/08/07 11:12:02;;;;;;;0.50;0.50;;;32.30;44.40;33.10;96974.00;;;;5074820;28;20543;-82
2022/08/07 11:14:49;;;;;;;0.85;0.65;;;32.20;44.50;33.00;96965.00;;;;5068707;28;20203;-82
2022/08/07 11:17:25;;;;;;;0.63;0.50;;;32.10;43.60;32.90;96979.00;;;;5075727;28;20191;-82
2022/08/07 11:20:03;;;;;;;0.70;0.70;;;32.00;44.50;32.80;96972.00;;;;5077387;28;20310;-82
2022/08/07 11:22:40;;;;;;;0.77;0.52;;;31.90;44.10;32.70;96966.00;;;;5073399;28;20202;-82
2022/08/07 11:25:17;;;;;;;0.40;0.40;;;31.80;43.40;32.50;96964.00;;;;5069984;28;20196;-82
2022/08/07 11:27:56;;;;;;;0.68;0.68;;;31.70;43.40;32.40;96972.00;;;;5075191;28;20192;-82
2022/08/07 11:30:35;;;;;;;0.38;0.38;;;31.60;43.00;32.30;96963.00;;;;5069330;28;20231;-82
2022/08/07 11:33:18;;;;;;;0.45;0.45;;;31.40;43.20;32.20;96959.00;;;;5079558;28;20211;-81